Time;durP1;ratioP1;P1;durP2;ratioP2;P2;SDS_P1;SDS_P2;PMS_P1;PMS_P2;Temp;Humidity;BMP_temperature;BMP_pressure;BME280_temperature;BME280_humidity;BME280_pressure;Samples;Min_cycle;Max_cycle;Signal;HPM_P1;HPM_P2
2023/05/30 00:01:32;;;;;;;3.17;2.88;;;15.00;57.80;;;;;;4983998;28;20045;-64
2023/05/30 00:04:00;;;;;;;3.47;2.80;;;14.90;58.00;;;;;;5000801;28;20030;-64
2023/05/30 00:06:26;;;;;;;4.22;2.88;;;14.90;58.10;;;;;;5001032;28;20657;-64
2023/05/30 00:08:52;;;;;;;5.78;2.90;;;14.80;58.30;;;;;;5002380;28;20103;-64
2023/05/30 00:11:18;;;;;;;3.17;2.67;;;14.70;58.60;;;;;;5002901;28;20490;-64
2023/05/30 00:13:43;;;;;;;3.63;2.65;;;14.60;58.80;;;;;;5002226;28;20045;-64
2023/05/30 00:16:14;;;;;;;5.40;2.72;;;14.50;58.90;;;;;;5002767;28;20060;-64
2023/05/30 00:18:39;;;;;;;4.25;3.13;;;14.50;59.10;;;;;;4998614;28;20512;-64
2023/05/30 00:21:07;;;;;;;3.97;3.10;;;14.50;59.30;;;;;;5001080;28;20049;-63
2023/05/30 00:23:35;;;;;;;3.60;2.97;;;14.40;59.60;;;;;;4997720;28;20080;-64
2023/05/30 00:26:01;;;;;;;5.45;3.30;;;14.30;59.70;;;;;;5000154;28;20557;-64
2023/05/30 00:28:27;;;;;;;5.05;2.72;;;14.30;59.90;;;;;;4998842;28;20045;-64
2023/05/30 00:30:53;;;;;;;4.72;2.80;;;14.20;60.30;;;;;;5000095;28;20096;-64
2023/05/30 00:33:20;;;;;;;3.30;2.72;;;14.20;60.50;;;;;;4998941;28;20042;-64
2023/05/30 00:35:45;;;;;;;4.00;2.88;;;14.10;60.80;;;;;;5003469;28;20116;-64
2023/05/30 00:38:11;;;;;;;4.10;2.92;;;14.10;60.80;;;;;;5003030;28;20117;-64
2023/05/30 00:40:37;;;;;;;3.17;2.78;;;14.10;60.80;;;;;;4999827;28;20045;-64
2023/05/30 00:43:03;;;;;;;3.58;2.92;;;14.10;61.80;;;;;;5003368;28;20501;-64
2023/05/30 00:45:28;;;;;;;3.63;2.92;;;14.10;61.20;;;;;;5000636;28;20141;-64
2023/05/30 00:47:54;;;;;;;3.50;2.78;;;14.10;61.30;;;;;;5001296;28;20042;-64
2023/05/30 00:50:21;;;;;;;3.35;2.70;;;14.20;61.30;;;;;;4998410;28;20593;-63
2023/05/30 00:52:47;;;;;;;5.30;3.30;;;14.30;61.60;;;;;;5002153;28;20125;-64
2023/05/30 00:55:14;;;;;;;4.72;3.20;;;14.30;61.60;;;;;;5002927;28;20043;-64
2023/05/30 00:57:40;;;;;;;4.18;3.10;;;14.40;61.50;;;;;;5001536;28;20033;-64
2023/05/30 01:00:06;;;;;;;4.82;2.92;;;14.50;61.50;;;;;;5002985;28;20038;-64
2023/05/30 01:02:35;;;;;;;6.97;3.25;;;14.50;61.40;;;;;;4984522;28;20381;-63
2023/05/30 01:05:01;;;;;;;3.67;3.30;;;14.60;61.40;;;;;;5002827;28;20428;-63
2023/05/30 01:07:27;;;;;;;4.45;3.00;;;14.60;61.30;;;;;;5002577;28;21086;-64
2023/05/30 01:09:54;;;;;;;4.85;3.20;;;14.70;61.20;;;;;;5000858;28;20177;-64
2023/05/30 01:12:37;;;;;;;6.72;3.08;;;14.80;61.10;;;;;;4999024;28;20026;-64
2023/05/30 01:15:19;;;;;;;3.05;2.75;;;14.80;61.80;;;;;;5002136;28;20036;-64
2023/05/30 01:18:19;;;;;;;6.72;2.97;;;14.90;61.50;;;;;;5002110;28;20476;-64
2023/05/30 01:20:56;;;;;;;6.60;2.95;;;14.90;62.00;;;;;;4997999;28;20062;-63
2023/05/30 01:24:06;;;;;;;3.92;3.05;;;15.00;60.70;;;;;;4998007;28;20745;-64
2023/05/30 01:27:08;;;;;;;2.72;2.40;;;15.00;61.50;;;;;;4998190;28;20030;-64
2023/05/30 01:29:36;;;;;;;5.53;3.10;;;15.10;61.30;;;;;;5000729;28;20180;-64
2023/05/30 01:32:05;;;;;;;5.32;3.25;;;15.10;60.50;;;;;;5004125;28;20044;-63
2023/05/30 01:34:31;;;;;;;4.47;2.97;;;15.10;60.50;;;;;;5000247;28;20041;-64
2023/05/30 01:36:57;;;;;;;4.43;3.40;;;15.20;60.60;;;;;;5000862;28;20030;-64
2023/05/30 01:39:22;;;;;;;3.70;3.40;;;15.20;60.60;;;;;;5003882;28;20084;-64
2023/05/30 01:41:57;;;;;;;5.38;3.80;;;15.20;60.50;;;;;;5003579;28;20172;-64
2023/05/30 01:44:38;;;;;;;4.88;4.05;;;15.20;60.50;;;;;;5004209;28;20041;-64
2023/05/30 01:47:16;;;;;;;9.77;4.60;;;15.20;61.20;;;;;;5004057;28;20030;-64
2023/05/30 01:50:09;;;;;;;7.03;5.22;;;15.20;60.80;;;;;;4999308;28;20100;-64
2023/05/30 01:52:41;;;;;;;7.53;5.53;;;15.20;62.00;;;;;;4997745;28;20045;-64
2023/05/30 01:55:08;;;;;;;7.15;5.15;;;15.40;60.90;;;;;;5002327;28;20545;-64
2023/05/30 01:57:43;;;;;;;6.78;5.40;;;15.30;60.60;;;;;;4998895;28;20034;-64
2023/05/30 02:00:11;;;;;;;8.60;5.68;;;15.20;61.00;;;;;;5002851;28;20046;-64
2023/05/30 02:02:37;;;;;;;7.35;5.55;;;15.20;60.60;;;;;;5000323;28;20042;-64
2023/05/30 02:05:02;;;;;;;7.22;5.63;;;15.20;60.50;;;;;;4998842;28;20038;-64
2023/05/30 02:07:28;;;;;;;6.78;5.70;;;15.20;60.40;;;;;;5000180;28;20034;-64
2023/05/30 02:09:54;;;;;;;7.32;5.35;;;15.20;60.60;;;;;;5002513;28;20525;-63
2023/05/30 02:12:19;;;;;;;7.30;4.03;;;15.20;60.80;;;;;;4999737;28;20125;-64
2023/05/30 02:14:47;;;;;;;4.70;3.97;;;15.20;60.80;;;;;;5001972;28;20041;-64
2023/05/30 02:17:13;;;;;;;7.30;4.05;;;15.30;60.80;;;;;;5000038;28;20045;-64
2023/05/30 02:19:39;;;;;;;4.35;3.70;;;15.20;60.60;;;;;;5000921;28;20536;-64
2023/05/30 02:22:07;;;;;;;6.60;3.80;;;15.10;60.50;;;;;;5002500;28;20137;-64
2023/05/30 02:24:34;;;;;;;5.35;4.07;;;15.10;60.70;;;;;;5000352;28;20031;-64
2023/05/30 02:26:59;;;;;;;4.75;3.55;;;15.10;60.70;;;;;;5003482;28;20502;-63
2023/05/30 02:29:25;;;;;;;4.32;3.60;;;15.10;61.10;;;;;;5005835;28;20048;-64
2023/05/30 02:31:51;;;;;;;4.95;3.60;;;15.00;61.00;;;;;;5003443;28;20034;-64
2023/05/30 02:34:16;;;;;;;8.90;3.75;;;15.00;61.00;;;;;;5004500;28;20044;-64
2023/05/30 02:36:42;;;;;;;4.30;3.55;;;14.90;61.00;;;;;;5003137;28;20494;-63
2023/05/30 02:39:08;;;;;;;5.05;3.40;;;14.90;61.30;;;;;;5005213;28;20042;-64
2023/05/30 02:41:33;;;;;;;6.53;3.95;;;14.80;61.30;;;;;;5003451;28;20042;-64
2023/05/30 02:43:59;;;;;;;6.00;3.55;;;14.70;61.50;;;;;;5003011;28;20057;-64
2023/05/30 02:46:25;;;;;;;3.97;3.53;;;14.70;61.90;;;;;;5003169;28;20037;-64
2023/05/30 02:48:50;;;;;;;5.57;3.88;;;14.60;61.90;;;;;;5003145;28;20559;-64
2023/05/30 02:51:16;;;;;;;4.80;3.95;;;14.60;62.00;;;;;;5003492;28;20551;-64
2023/05/30 02:53:41;;;;;;;5.07;3.80;;;14.50;63.20;;;;;;5002180;28;20331;-64
2023/05/30 02:56:07;;;;;;;5.57;4.13;;;14.50;62.60;;;;;;5001204;28;20038;-64
2023/05/30 02:58:33;;;;;;;4.78;3.88;;;14.40;62.60;;;;;;5005273;28;20037;-63
2023/05/30 03:00:58;;;;;;;5.78;3.40;;;14.40;62.70;;;;;;5002645;28;21275;-64
2023/05/30 03:03:25;;;;;;;3.97;3.30;;;14.40;62.90;;;;;;5004568;28;20029;-64
2023/05/30 03:05:51;;;;;;;5.90;3.40;;;14.40;63.00;;;;;;5004994;28;20030;-64
2023/05/30 03:08:16;;;;;;;5.00;3.63;;;14.40;63.10;;;;;;5002182;28;20128;-64
2023/05/30 03:10:42;;;;;;;4.13;3.20;;;14.40;63.30;;;;;;5004059;28;20473;-63
2023/05/30 03:13:08;;;;;;;5.22;3.10;;;14.40;63.40;;;;;;5005738;28;20543;-64
2023/05/30 03:15:33;;;;;;;4.57;3.42;;;14.40;63.40;;;;;;5001215;28;20029;-64
2023/05/30 03:17:59;;;;;;;3.70;3.35;;;14.40;63.40;;;;;;5001766;28;20124;-64
2023/05/30 03:20:25;;;;;;;3.75;3.08;;;14.40;63.30;;;;;;5004858;28;20033;-64
2023/05/30 03:22:50;;;;;;;4.38;3.20;;;14.40;63.30;;;;;;5001543;28;20190;-64
2023/05/30 03:25:16;;;;;;;4.40;3.15;;;14.50;63.40;;;;;;5003286;28;20504;-63
2023/05/30 03:27:41;;;;;;;4.18;3.20;;;14.50;63.50;;;;;;5005375;28;20030;-64
2023/05/30 03:30:08;;;;;;;2.88;2.65;;;14.50;63.30;;;;;;5002572;28;20096;-64
2023/05/30 03:32:33;;;;;;;3.85;3.05;;;14.50;63.40;;;;;;4999713;28;20088;-64
2023/05/30 03:34:59;;;;;;;4.60;3.10;;;14.50;63.60;;;;;;5000430;28;20034;-64
2023/05/30 03:37:25;;;;;;;4.18;3.08;;;14.50;63.50;;;;;;5003279;28;20041;-63
2023/05/30 03:39:50;;;;;;;4.28;3.33;;;14.50;63.40;;;;;;5007746;28;20408;-64
2023/05/30 03:42:16;;;;;;;6.35;3.17;;;14.50;63.40;;;;;;5007902;28;20129;-64
2023/05/30 03:44:41;;;;;;;5.07;3.22;;;14.50;63.40;;;;;;5007611;28;20049;-64
2023/05/30 03:47:07;;;;;;;4.85;3.25;;;14.50;63.40;;;;;;5005425;28;20030;-64
2023/05/30 03:49:32;;;;;;;4.30;3.10;;;14.50;63.60;;;;;;5001028;28;20030;-64
2023/05/30 03:51:58;;;;;;;4.28;2.80;;;14.50;63.60;;;;;;5001209;28;20535;-64
2023/05/30 03:54:24;;;;;;;3.45;2.90;;;14.50;63.40;;;;;;5004776;28;20501;-64
2023/05/30 03:56:49;;;;;;;3.55;2.97;;;14.50;63.60;;;;;;5002881;28;20049;-64
2023/05/30 03:59:15;;;;;;;5.25;3.17;;;14.40;63.60;;;;;;5003421;28;20519;-63
2023/05/30 04:01:41;;;;;;;5.75;3.50;;;14.40;63.70;;;;;;5003782;28;20034;-64
2023/05/30 04:04:06;;;;;;;6.22;3.70;;;14.40;64.00;;;;;;5001295;28;20038;-64
2023/05/30 04:06:34;;;;;;;6.68;3.95;;;14.30;64.10;;;;;;4998284;28;20445;-64
2023/05/30 04:09:02;;;;;;;4.50;3.17;;;14.30;64.30;;;;;;5000585;28;20034;-64
2023/05/30 04:11:28;;;;;;;4.20;3.47;;;14.30;64.60;;;;;;4987782;28;20038;-64
2023/05/30 04:13:53;;;;;;;6.63;3.65;;;14.20;64.60;;;;;;5002215;28;20042;-64
2023/05/30 04:16:19;;;;;;;6.00;3.53;;;14.20;64.50;;;;;;5001877;28;20417;-64
2023/05/30 04:18:47;;;;;;;6.95;3.45;;;14.20;64.80;;;;;;5001827;28;20030;-64
2023/05/30 04:21:13;;;;;;;6.68;4.13;;;14.20;65.10;;;;;;4999952;28;20750;-64
2023/05/30 04:23:42;;;;;;;4.30;3.70;;;14.20;65.20;;;;;;5000222;28;20161;-64
2023/05/30 04:26:09;;;;;;;5.82;3.63;;;14.20;65.30;;;;;;4995461;28;20045;-64
2023/05/30 04:28:38;;;;;;;5.50;3.78;;;14.20;65.70;;;;;;4999736;28;20045;-65
2023/05/30 04:31:05;;;;;;;6.75;3.65;;;14.20;66.00;;;;;;5001062;28;20034;-64
2023/05/30 04:33:35;;;;;;;5.22;3.85;;;14.20;65.90;;;;;;5004834;28;20382;-64
2023/05/30 04:36:06;;;;;;;5.60;3.53;;;14.20;66.00;;;;;;5004240;28;20026;-64
2023/05/30 04:38:34;;;;;;;4.80;3.28;;;14.20;66.00;;;;;;5004624;28;20401;-64
2023/05/30 04:41:02;;;;;;;5.15;3.65;;;14.20;65.90;;;;;;5005088;28;20053;-64
2023/05/30 04:43:29;;;;;;;4.30;3.40;;;14.30;66.20;;;;;;5004327;28;20034;-64
2023/05/30 04:45:55;;;;;;;5.07;3.95;;;14.30;66.10;;;;;;5005207;28;20034;-64
2023/05/30 04:48:22;;;;;;;4.75;3.88;;;14.40;66.10;;;;;;5003778;28;20468;-64
2023/05/30 04:50:48;;;;;;;5.47;3.63;;;14.40;66.10;;;;;;5004497;28;20037;-63
2023/05/30 04:53:15;;;;;;;4.22;3.28;;;14.50;66.20;;;;;;4981042;28;20528;-64
2023/05/30 04:55:44;;;;;;;5.50;3.60;;;14.50;66.20;;;;;;5005359;28;20034;-64
2023/05/30 04:58:11;;;;;;;5.22;3.20;;;14.60;66.30;;;;;;5003924;28;20088;-63
2023/05/30 05:00:38;;;;;;;4.32;3.28;;;14.70;66.60;;;;;;5004612;28;20030;-64
2023/05/30 05:03:04;;;;;;;4.88;3.35;;;14.80;66.40;;;;;;5003624;28;20042;-63
2023/05/30 05:05:30;;;;;;;5.15;3.13;;;14.80;66.20;;;;;;5003171;28;20033;-64
2023/05/30 05:07:55;;;;;;;5.40;3.47;;;14.80;66.00;;;;;;5005084;28;20048;-63
2023/05/30 05:10:21;;;;;;;4.20;3.25;;;14.90;65.90;;;;;;5004747;28;20046;-64
2023/05/30 05:12:46;;;;;;;3.67;3.15;;;15.00;66.10;;;;;;5004683;28;20046;-64
2023/05/30 05:15:13;;;;;;;10.60;3.80;;;15.10;65.90;;;;;;5004170;28;20417;-64
2023/05/30 05:17:38;;;;;;;7.00;3.63;;;15.10;65.90;;;;;;5005070;28;20092;-64
2023/05/30 05:20:05;;;;;;;5.78;3.70;;;15.10;65.70;;;;;;5003661;28;20038;-63
2023/05/30 05:22:35;;;;;;;4.55;3.30;;;15.20;66.60;;;;;;5004420;28;20180;-64
2023/05/30 05:25:01;;;;;;;6.95;3.35;;;15.30;65.60;;;;;;5004262;28;20032;-64
2023/05/30 05:27:27;;;;;;;4.63;3.70;;;15.40;65.70;;;;;;5004205;28;20034;-64
2023/05/30 05:29:53;;;;;;;4.32;3.50;;;15.50;65.90;;;;;;5003416;28;20050;-64
2023/05/30 05:32:18;;;;;;;4.75;3.45;;;15.50;65.60;;;;;;5004312;28;20054;-64
2023/05/30 05:34:44;;;;;;;4.80;3.28;;;15.60;66.50;;;;;;5003615;28;20045;-63
2023/05/30 05:37:10;;;;;;;3.95;3.20;;;15.60;65.50;;;;;;5005404;28;20041;-64
2023/05/30 05:39:35;;;;;;;6.53;3.83;;;15.70;65.20;;;;;;5006558;28;20402;-64
2023/05/30 05:42:02;;;;;;;6.18;3.35;;;15.80;65.00;;;;;;5005775;28;20034;-63
2023/05/30 05:44:29;;;;;;;6.45;3.45;;;15.90;64.90;;;;;;5005537;28;20533;-63
2023/05/30 05:46:55;;;;;;;7.20;3.55;;;15.90;64.90;;;;;;5006327;28;20409;-64
2023/05/30 05:49:21;;;;;;;5.95;4.10;;;15.90;64.90;;;;;;5004240;28;20046;-64
2023/05/30 05:51:46;;;;;;;4.38;3.33;;;16.00;64.80;;;;;;5004042;28;20048;-64
2023/05/30 05:54:12;;;;;;;7.63;3.60;;;16.00;64.70;;;;;;5006342;28;20042;-63
2023/05/30 05:56:37;;;;;;;7.78;3.60;;;16.10;65.70;;;;;;5007239;28;20046;-64
2023/05/30 05:59:03;;;;;;;7.50;3.70;;;16.10;64.90;;;;;;5008119;28;20517;-64
2023/05/30 06:01:29;;;;;;;6.32;3.30;;;16.20;64.80;;;;;;5008314;28;20029;-64
2023/05/30 06:03:54;;;;;;;6.75;3.75;;;16.20;64.60;;;;;;5006814;28;20045;-63
2023/05/30 06:06:20;;;;;;;5.60;3.90;;;16.30;64.50;;;;;;5007106;28;20679;-64
2023/05/30 06:08:46;;;;;;;7.18;3.53;;;16.30;64.30;;;;;;5007425;28;20394;-63
2023/05/30 06:11:13;;;;;;;6.32;3.47;;;16.40;64.00;;;;;;5007897;28;20033;-63
2023/05/30 06:13:38;;;;;;;3.70;3.35;;;16.40;63.70;;;;;;5007711;28;20037;-63
2023/05/30 06:16:05;;;;;;;5.05;3.50;;;16.50;63.80;;;;;;5008442;28;20034;-64
2023/05/30 06:18:30;;;;;;;5.28;3.47;;;16.50;63.80;;;;;;4996281;28;20034;-64
2023/05/30 06:20:56;;;;;;;4.75;3.38;;;16.60;63.80;;;;;;5008181;28;20387;-64
2023/05/30 06:23:21;;;;;;;7.35;3.72;;;16.70;63.60;;;;;;5006899;28;20136;-63
2023/05/30 06:25:47;;;;;;;3.67;3.30;;;16.70;63.10;;;;;;5006358;28;20088;-64
2023/05/30 06:28:12;;;;;;;4.30;3.22;;;16.80;63.00;;;;;;5006973;28;20049;-64
2023/05/30 06:30:38;;;;;;;5.78;3.72;;;16.90;62.80;;;;;;4989869;28;20354;-64
2023/05/30 06:33:04;;;;;;;4.15;3.53;;;16.90;62.70;;;;;;5006968;28;20045;-63
2023/05/30 06:35:29;;;;;;;4.18;3.13;;;17.00;62.40;;;;;;5007527;28;20041;-64
2023/05/30 06:37:55;;;;;;;5.97;3.60;;;17.10;62.40;;;;;;5006461;28;20646;-64
2023/05/30 06:40:20;;;;;;;7.47;3.45;;;17.10;62.00;;;;;;5007042;28;20095;-64
2023/05/30 06:42:46;;;;;;;6.30;3.53;;;17.30;61.70;;;;;;5007218;28;20389;-64
2023/05/30 06:45:12;;;;;;;6.10;3.47;;;17.30;61.40;;;;;;5008306;28;20076;-63
2023/05/30 06:47:38;;;;;;;4.05;3.20;;;17.30;61.30;;;;;;4990446;28;20068;-63
2023/05/30 06:50:06;;;;;;;5.45;3.47;;;17.40;61.00;;;;;;5006939;28;20045;-64
2023/05/30 06:52:31;;;;;;;5.65;3.75;;;17.50;61.00;;;;;;5007307;28;20044;-63
2023/05/30 06:54:57;;;;;;;4.43;3.28;;;17.60;61.00;;;;;;5007786;28;20030;-63
2023/05/30 06:57:24;;;;;;;4.05;3.08;;;17.60;60.60;;;;;;5006937;28;20481;-64
2023/05/30 06:59:50;;;;;;;6.32;3.50;;;17.70;60.70;;;;;;5007763;28;20045;-63
2023/05/30 07:02:15;;;;;;;5.53;3.70;;;17.80;60.40;;;;;;5007804;28;20042;-63
2023/05/30 07:04:41;;;;;;;5.20;3.60;;;17.80;60.20;;;;;;5005198;28;20490;-64
2023/05/30 07:07:08;;;;;;;8.75;3.83;;;17.80;60.00;;;;;;5007539;28;20041;-63
2023/05/30 07:09:33;;;;;;;4.40;3.45;;;17.90;60.00;;;;;;5006663;28;20037;-64
2023/05/30 07:11:59;;;;;;;5.53;3.72;;;18.00;59.70;;;;;;5007512;28;20029;-63
2023/05/30 07:14:24;;;;;;;4.78;3.50;;;18.00;59.60;;;;;;5007411;28;20625;-63
2023/05/30 07:16:50;;;;;;;4.57;3.45;;;18.10;59.60;;;;;;5005135;28;20038;-64
2023/05/30 07:19:16;;;;;;;4.00;3.58;;;18.10;59.70;;;;;;5005438;28;20129;-63
2023/05/30 07:21:41;;;;;;;5.68;3.25;;;18.20;59.50;;;;;;5005361;28;20096;-64
2023/05/30 07:24:07;;;;;;;6.22;3.40;;;18.30;59.60;;;;;;5007356;28;20512;-63
2023/05/30 07:26:34;;;;;;;6.72;3.58;;;18.30;59.40;;;;;;5005880;28;20159;-64
2023/05/30 07:29:00;;;;;;;4.68;3.05;;;18.40;59.90;;;;;;5007113;28;20038;-64
2023/05/30 07:31:25;;;;;;;7.93;3.85;;;18.50;59.00;;;;;;5006020;28;20026;-64
2023/05/30 07:33:51;;;;;;;6.60;3.83;;;18.60;59.00;;;;;;5006117;28;20084;-64
2023/05/30 07:36:17;;;;;;;5.40;3.28;;;18.60;59.00;;;;;;5005815;28;20033;-64
2023/05/30 07:38:42;;;;;;;5.90;3.65;;;18.70;58.90;;;;;;5007182;28;20037;-64
2023/05/30 07:41:08;;;;;;;3.97;3.45;;;18.80;58.60;;;;;;5008084;28;20034;-64
2023/05/30 07:43:33;;;;;;;5.15;3.80;;;18.80;58.60;;;;;;5008206;28;20026;-64
2023/05/30 07:45:59;;;;;;;5.93;4.05;;;18.90;58.50;;;;;;5007958;28;20543;-64
2023/05/30 07:48:25;;;;;;;5.72;3.75;;;18.90;58.30;;;;;;5005023;28;20045;-64
2023/05/30 07:50:50;;;;;;;5.00;3.65;;;19.00;58.30;;;;;;5006113;28;20354;-64
2023/05/30 07:53:16;;;;;;;6.70;3.40;;;19.00;58.20;;;;;;5005174;28;20129;-64
2023/05/30 07:55:41;;;;;;;6.53;3.47;;;19.10;58.50;;;;;;5007511;28;20061;-64
2023/05/30 07:58:07;;;;;;;5.38;3.47;;;19.20;58.60;;;;;;5006442;28;20034;-64
2023/05/30 08:00:33;;;;;;;5.15;3.70;;;19.30;58.20;;;;;;5005796;28;20077;-64
2023/05/30 08:02:58;;;;;;;8.52;3.80;;;19.30;58.00;;;;;;5001314;28;20042;-64
2023/05/30 08:05:24;;;;;;;6.00;3.20;;;19.30;58.10;;;;;;5004172;28;20715;-64
2023/05/30 08:07:49;;;;;;;6.45;3.70;;;19.50;57.40;;;;;;5007486;28;20038;-64
2023/05/30 08:10:16;;;;;;;3.85;3.40;;;19.50;57.60;;;;;;5005881;28;20048;-63
2023/05/30 08:12:41;;;;;;;5.18;3.75;;;19.50;57.60;;;;;;5006072;28;20022;-64
2023/05/30 08:15:09;;;;;;;5.28;3.40;;;19.50;57.50;;;;;;5007452;28;20100;-64
2023/05/30 08:17:35;;;;;;;6.32;3.95;;;19.60;57.60;;;;;;5006610;28;20021;-64
2023/05/30 08:20:03;;;;;;;4.82;3.15;;;19.70;57.50;;;;;;5006668;28;20037;-64
2023/05/30 08:22:31;;;;;;;5.45;3.70;;;19.80;57.40;;;;;;5005654;28;20080;-63
2023/05/30 08:24:59;;;;;;;4.88;3.50;;;19.90;57.20;;;;;;5007022;28;20053;-64
2023/05/30 08:27:26;;;;;;;5.43;3.60;;;20.00;56.80;;;;;;5007351;28;20041;-64
2023/05/30 08:29:53;;;;;;;3.83;3.22;;;20.10;56.60;;;;;;5005668;28;20026;-63
2023/05/30 08:32:18;;;;;;;3.45;3.15;;;20.20;56.60;;;;;;5006446;28;20322;-64
2023/05/30 08:34:47;;;;;;;5.03;3.30;;;20.30;56.00;;;;;;5006011;28;20026;-64
2023/05/30 08:37:13;;;;;;;4.93;3.60;;;20.30;55.70;;;;;;5005895;28;20038;-64
2023/05/30 08:39:39;;;;;;;4.78;3.42;;;20.40;56.10;;;;;;5005915;28;20049;-64
2023/05/30 08:42:05;;;;;;;4.05;3.13;;;20.50;55.70;;;;;;5007109;28;20151;-64
2023/05/30 08:44:31;;;;;;;5.63;3.50;;;20.50;55.60;;;;;;5006370;28;20060;-63
2023/05/30 08:46:57;;;;;;;4.90;3.40;;;20.60;55.60;;;;;;5007391;28;20041;-64
2023/05/30 08:49:24;;;;;;;7.55;3.45;;;20.70;55.60;;;;;;5004659;28;20038;-63
2023/05/30 08:51:52;;;;;;;5.57;3.42;;;20.80;55.60;;;;;;5004680;28;20046;-64
2023/05/30 08:54:22;;;;;;;4.40;3.33;;;20.90;55.50;;;;;;5006700;28;20042;-64
2023/05/30 08:57:26;;;;;;;5.47;3.28;;;21.00;55.10;;;;;;5006082;28;20048;-64
2023/05/30 08:59:53;;;;;;;5.75;3.40;;;21.10;55.00;;;;;;5006035;28;20504;-64
2023/05/30 09:02:20;;;;;;;6.20;3.65;;;21.30;55.10;;;;;;5006176;28;20062;-64
2023/05/30 09:04:48;;;;;;;5.18;3.65;;;21.40;54.70;;;;;;5004850;28;20041;-64
2023/05/30 09:07:14;;;;;;;6.50;3.60;;;21.50;53.90;;;;;;5006536;28;20490;-64
2023/05/30 09:09:41;;;;;;;5.47;3.30;;;21.60;53.90;;;;;;5006564;28;20115;-64
2023/05/30 09:12:08;;;;;;;7.32;3.10;;;21.60;53.70;;;;;;5005238;28;20038;-64
2023/05/30 09:14:34;;;;;;;5.72;3.20;;;21.70;53.90;;;;;;5003968;28;20038;-64
2023/05/30 09:17:00;;;;;;;7.38;3.40;;;21.80;53.70;;;;;;5005606;28;20121;-64
2023/05/30 09:19:26;;;;;;;3.42;3.08;;;21.90;53.50;;;;;;5005177;28;20476;-64
2023/05/30 09:21:52;;;;;;;7.85;3.38;;;22.00;53.50;;;;;;5005249;28;20037;-64
2023/05/30 09:24:17;;;;;;;6.30;3.10;;;22.10;53.30;;;;;;5006058;28;20045;-63
2023/05/30 09:27:01;;;;;;;5.57;3.40;;;22.10;53.20;;;;;;5006036;28;20100;-64
2023/05/30 09:29:26;;;;;;;4.03;3.22;;;22.20;52.70;;;;;;5004903;28;20509;-64
2023/05/30 09:31:52;;;;;;;5.22;3.17;;;22.30;52.90;;;;;;5006049;28;20049;-64
2023/05/30 09:34:19;;;;;;;4.38;3.33;;;22.40;53.20;;;;;;5005484;28;20456;-64
2023/05/30 09:36:55;;;;;;;9.93;3.88;;;22.50;53.00;;;;;;5005234;28;20034;-64
2023/05/30 09:39:21;;;;;;;4.00;3.22;;;22.50;52.90;;;;;;5006469;28;20125;-64
2023/05/30 09:41:47;;;;;;;5.20;3.78;;;22.60;52.50;;;;;;5007681;28;20061;-64
2023/05/30 09:44:13;;;;;;;5.28;3.22;;;22.70;52.00;;;;;;5007450;28;20088;-64
2023/05/30 09:46:38;;;;;;;9.25;3.00;;;22.70;52.10;;;;;;4989249;28;20227;-64
2023/05/30 09:49:14;;;;;;;6.30;3.38;;;22.80;52.30;;;;;;5004554;28;20038;-64
2023/05/30 09:51:41;;;;;;;5.88;3.42;;;22.80;51.60;;;;;;5004459;28;20072;-64
2023/05/30 09:54:07;;;;;;;5.90;3.45;;;22.90;51.40;;;;;;5006327;28;20038;-64
2023/05/30 09:56:34;;;;;;;6.03;3.40;;;22.90;51.30;;;;;;5005541;28;20088;-64
2023/05/30 09:59:06;;;;;;;6.45;3.40;;;23.00;51.10;;;;;;5005335;28;20064;-64
2023/05/30 10:01:46;;;;;;;4.97;3.20;;;23.00;51.20;;;;;;5005795;28;20129;-64
2023/05/30 10:04:21;;;;;;;5.20;3.40;;;23.00;51.00;;;;;;5003366;28;20034;-64
2023/05/30 10:06:49;;;;;;;5.38;3.67;;;23.10;51.00;;;;;;5005902;28;20038;-64
2023/05/30 10:09:15;;;;;;;6.63;3.65;;;23.20;50.70;;;;;;5005688;28;20041;-64
2023/05/30 10:11:43;;;;;;;3.83;3.42;;;23.20;50.90;;;;;;5005731;28;20042;-64
2023/05/30 10:14:11;;;;;;;4.93;3.67;;;23.20;50.70;;;;;;5005032;28;20038;-64
2023/05/30 10:16:47;;;;;;;4.75;3.40;;;23.30;51.10;;;;;;4988012;28;20038;-64
2023/05/30 10:19:17;;;;;;;7.05;2.92;;;23.30;50.60;;;;;;5005040;28;20489;-63
2023/05/30 10:21:44;;;;;;;3.65;3.17;;;23.40;50.70;;;;;;5005240;28;20384;-64
2023/05/30 10:24:14;;;;;;;5.38;3.47;;;23.40;50.70;;;;;;5005310;28;20537;-64
2023/05/30 10:26:46;;;;;;;4.43;3.30;;;23.50;50.20;;;;;;5004529;28;20038;-64
2023/05/30 10:29:13;;;;;;;5.30;2.95;;;23.60;50.10;;;;;;5005039;28;20121;-64
2023/05/30 10:31:39;;;;;;;5.07;3.00;;;23.70;50.90;;;;;;4988584;28;20176;-64
2023/05/30 10:34:09;;;;;;;5.20;3.22;;;23.70;50.00;;;;;;5006012;28;20117;-64
2023/05/30 10:36:35;;;;;;;5.10;3.10;;;23.80;49.70;;;;;;5003780;28;20030;-64
2023/05/30 10:39:22;;;;;;;8.23;3.17;;;23.80;49.30;;;;;;5004691;28;20117;-64
2023/05/30 10:42:16;;;;;;;6.57;3.75;;;23.90;49.20;;;;;;5007593;28;20125;-64
2023/05/30 10:45:13;;;;;;;5.28;3.00;;;23.90;48.40;;;;;;5006592;28;20029;-63
2023/05/30 10:47:48;;;;;;;4.80;3.05;;;23.90;48.50;;;;;;5008952;28;20026;-64
2023/05/30 10:50:24;;;;;;;3.67;2.70;;;23.90;49.30;;;;;;5008149;28;20440;-62
2023/05/30 10:52:54;;;;;;;9.50;3.40;;;24.00;49.00;;;;;;5006664;28;20509;-64
2023/05/30 10:55:20;;;;;;;7.75;3.58;;;24.00;48.80;;;;;;5007771;28;20069;-64
2023/05/30 10:57:45;;;;;;;4.18;3.08;;;24.10;47.90;;;;;;5009581;28;20069;-64
2023/05/30 11:00:29;;;;;;;5.40;2.80;;;24.10;47.80;;;;;;5009386;28;20038;-64
2023/05/30 11:02:55;;;;;;;5.50;2.50;;;24.00;47.20;;;;;;5008734;28;20505;-64
2023/05/30 11:05:31;;;;;;;4.20;2.92;;;23.90;48.30;;;;;;5007937;28;20110;-63
2023/05/30 11:07:59;;;;;;;5.13;2.67;;;24.00;47.80;;;;;;5007566;28;20042;-64
2023/05/30 11:10:26;;;;;;;4.78;2.60;;;24.00;48.10;;;;;;5007718;28;20730;-64
2023/05/30 11:12:53;;;;;;;3.30;2.72;;;24.10;48.40;;;;;;5007383;28;20485;-64
2023/05/30 11:15:34;;;;;;;3.58;2.80;;;24.10;48.30;;;;;;5007305;28;20123;-64
2023/05/30 11:17:59;;;;;;;5.00;2.90;;;24.20;47.50;;;;;;5007965;28;20401;-64
2023/05/30 11:20:26;;;;;;;4.75;2.90;;;24.30;47.70;;;;;;5007411;28;20034;-64
2023/05/30 11:23:01;;;;;;;5.35;2.58;;;24.30;47.00;;;;;;5007016;28;20038;-64
2023/05/30 11:25:29;;;;;;;4.13;2.88;;;24.30;47.30;;;;;;5007232;28;20037;-64
2023/05/30 11:28:03;;;;;;;3.53;2.13;;;24.30;47.50;;;;;;5009593;28;20464;-64
2023/05/30 11:30:29;;;;;;;4.97;2.40;;;24.30;46.80;;;;;;5007232;28;20034;-64
2023/05/30 11:32:57;;;;;;;4.13;2.88;;;24.40;47.80;;;;;;5007715;28;20030;-64
2023/05/30 11:35:24;;;;;;;3.03;2.55;;;24.40;47.00;;;;;;5007110;28;20034;-64
2023/05/30 11:37:50;;;;;;;4.47;2.40;;;24.50;47.10;;;;;;5009425;28;20033;-64
2023/05/30 11:40:16;;;;;;;5.55;2.80;;;24.50;46.90;;;;;;5009116;28;20049;-64
2023/05/30 11:42:42;;;;;;;3.78;2.50;;;24.50;46.50;;;;;;4991135;28;20042;-64
2023/05/30 11:45:09;;;;;;;2.65;2.30;;;24.60;46.70;;;;;;5009773;28;20046;-64
2023/05/30 11:47:34;;;;;;;4.93;2.58;;;24.60;46.70;;;;;;5009327;28;20029;-64
2023/05/30 11:50:00;;;;;;;4.68;2.47;;;24.70;46.30;;;;;;5008860;28;20111;-64
2023/05/30 11:52:25;;;;;;;3.65;2.40;;;24.80;46.20;;;;;;5008181;28;20042;-64
2023/05/30 11:54:58;;;;;;;3.20;2.38;;;24.80;45.70;;;;;;5006929;28;20030;-64
2023/05/30 11:57:23;;;;;;;3.72;2.33;;;24.90;45.40;;;;;;5007433;28;20096;-64
2023/05/30 11:59:49;;;;;;;4.57;2.40;;;24.90;44.90;;;;;;5007086;28;20041;-64
2023/05/30 12:02:15;;;;;;;4.53;2.47;;;25.00;44.20;;;;;;5007843;28;20068;-64
2023/05/30 12:04:42;;;;;;;4.72;2.65;;;25.00;44.40;;;;;;5005910;28;20042;-64
2023/05/30 12:07:09;;;;;;;3.78;2.30;;;25.00;44.70;;;;;;5006085;28;20038;-64
2023/05/30 12:09:41;;;;;;;3.10;2.20;;;25.00;44.80;;;;;;5007149;28;20030;-63
2023/05/30 12:12:08;;;;;;;4.47;2.40;;;25.10;43.70;;;;;;5006954;28;20041;-64
2023/05/30 12:14:37;;;;;;;2.40;2.20;;;25.10;43.40;;;;;;5006615;28;20057;-64
2023/05/30 12:17:08;;;;;;;4.13;2.25;;;25.10;43.40;;;;;;5005988;28;20117;-64
2023/05/30 12:19:33;;;;;;;4.60;2.45;;;25.10;43.70;;;;;;5006849;28;20030;-64
2023/05/30 12:22:03;;;;;;;3.65;2.22;;;25.10;43.60;;;;;;5005429;28;20402;-64
2023/05/30 12:24:29;;;;;;;3.25;2.47;;;25.10;43.70;;;;;;5006306;28;20121;-64
2023/05/30 12:26:56;;;;;;;4.00;2.85;;;25.20;42.70;;;;;;5006623;28;20030;-64
2023/05/30 12:29:24;;;;;;;4.03;2.17;;;25.10;43.20;;;;;;5005789;28;20445;-64
2023/05/30 12:31:51;;;;;;;3.70;2.22;;;25.10;42.80;;;;;;5006195;28;20042;-64
2023/05/30 12:34:17;;;;;;;4.00;2.40;;;25.10;43.30;;;;;;5006010;28;20034;-63
2023/05/30 12:36:43;;;;;;;2.50;2.30;;;25.10;43.70;;;;;;5005191;28;20524;-63
2023/05/30 12:39:08;;;;;;;5.53;2.15;;;25.10;43.40;;;;;;5006263;28;20088;-64
2023/05/30 12:41:40;;;;;;;5.25;2.03;;;25.20;43.20;;;;;;5006280;28;20030;-64
2023/05/30 12:44:06;;;;;;;2.92;2.17;;;25.20;41.70;;;;;;5006670;28;20038;-64
2023/05/30 12:46:36;;;;;;;3.05;1.92;;;25.20;42.80;;;;;;5006296;28;20401;-64
2023/05/30 12:49:02;;;;;;;2.78;2.08;;;25.10;42.70;;;;;;5005145;28;20026;-64
2023/05/30 12:51:28;;;;;;;4.10;2.42;;;25.20;43.10;;;;;;5006620;28;20120;-64